sensor_id;sensor_type;location;lat;lon;timestamp;temperature;humidity
62809;DHT22;48848;39.002;-94.584;2023-06-22T00:01:09;21.60;48.40
62809;DHT22;48848;39.002;-94.584;2023-06-22T00:03:35;21.60;47.90
62809;DHT22;48848;39.002;-94.584;2023-06-22T00:06:01;21.50;47.80
62809;DHT22;48848;39.002;-94.584;2023-06-22T00:08:27;21.50;47.90
62809;DHT22;48848;39.002;-94.584;2023-06-22T00:10:52;21.50;47.80
62809;DHT22;48848;39.002;-94.584;2023-06-22T00:13:18;21.60;47.90
62809;DHT22;48848;39.002;-94.584;2023-06-22T00:15:44;21.50;47.40
62809;DHT22;48848;39.002;-94.584;2023-06-22T00:18:10;21.50;47.10
62809;DHT22;48848;39.002;-94.584;2023-06-22T00:20:37;21.40;47.20
62809;DHT22;48848;39.002;-94.584;2023-06-22T00:23:03;21.40;47.20
62809;DHT22;48848;39.002;-94.584;2023-06-22T00:25:39;21.40;47.60
62809;DHT22;48848;39.002;-94.584;2023-06-22T00:28:05;21.50;47.10
62809;DHT22;48848;39.002;-94.584;2023-06-22T00:30:32;21.50;47.10
62809;DHT22;48848;39.002;-94.584;2023-06-22T00:32:58;21.50;47.10
62809;DHT22;48848;39.002;-94.584;2023-06-22T00:35:24;21.40;47.10
62809;DHT22;48848;39.002;-94.584;2023-06-22T00:37:55;21.40;47.20
62809;DHT22;48848;39.002;-94.584;2023-06-22T00:40:29;21.40;47.20
62809;DHT22;48848;39.002;-94.584;2023-06-22T00:42:56;21.50;47.30
62809;DHT22;48848;39.002;-94.584;2023-06-22T00:45:22;21.50;47.10
62809;DHT22;48848;39.002;-94.584;2023-06-22T00:47:49;21.50;47.50
62809;DHT22;48848;39.002;-94.584;2023-06-22T00:50:17;21.40;47.00
62809;DHT22;48848;39.002;-94.584;2023-06-22T00:52:43;21.40;47.20
62809;DHT22;48848;39.002;-94.584;2023-06-22T00:55:11;21.40;47.00
62809;DHT22;48848;39.002;-94.584;2023-06-22T00:57:37;21.40;47.50
62809;DHT22;48848;39.002;-94.584;2023-06-22T01:00:03;21.40;47.60
62809;DHT22;48848;39.002;-94.584;2023-06-22T01:02:33;21.30;47.60
62809;DHT22;48848;39.002;-94.584;2023-06-22T01:04:59;21.10;48.10
62809;DHT22;48848;39.002;-94.584;2023-06-22T01:07:30;21.20;47.40
62809;DHT22;48848;39.002;-94.584;2023-06-22T01:09:59;21.30;47.00
62809;DHT22;48848;39.002;-94.584;2023-06-22T01:12:26;21.30;46.90
62809;DHT22;48848;39.002;-94.584;2023-06-22T01:14:55;21.30;46.90
62809;DHT22;48848;39.002;-94.584;2023-06-22T01:17:23;21.30;46.80
62809;DHT22;48848;39.002;-94.584;2023-06-22T01:19:50;21.20;46.60
62809;DHT22;48848;39.002;-94.584;2023-06-22T01:22:23;21.20;46.50
62809;DHT22;48848;39.002;-94.584;2023-06-22T01:29:57;21.20;46.50
62809;DHT22;48848;39.002;-94.584;2023-06-22T01:32:28;21.20;46.40
62809;DHT22;48848;39.002;-94.584;2023-06-22T01:34:55;21.10;46.30
62809;DHT22;48848;39.002;-94.584;2023-06-22T01:37:21;21.20;46.50
62809;DHT22;48848;39.002;-94.584;2023-06-22T01:39:47;21.20;46.80
62809;DHT22;48848;39.002;-94.584;2023-06-22T01:42:13;21.10;46.60
62809;DHT22;48848;39.002;-94.584;2023-06-22T01:44:39;21.10;46.90
62809;DHT22;48848;39.002;-94.584;2023-06-22T01:47:05;21.10;46.90
62809;DHT22;48848;39.002;-94.584;2023-06-22T01:49:32;21.10;47.10
62809;DHT22;48848;39.002;-94.584;2023-06-22T01:51:58;21.10;47.40
62809;DHT22;48848;39.002;-94.584;2023-06-22T01:54:24;21.10;48.60
62809;DHT22;48848;39.002;-94.584;2023-06-22T01:56:50;21.00;47.80
62809;DHT22;48848;39.002;-94.584;2023-06-22T02:01:54;21.00;48.20
62809;DHT22;48848;39.002;-94.584;2023-06-22T02:04:24;21.10;48.50
62809;DHT22;48848;39.002;-94.584;2023-06-22T02:06:53;21.00;48.60
62809;DHT22;48848;39.002;-94.584;2023-06-22T02:09:21;21.20;49.40
62809;DHT22;48848;39.002;-94.584;2023-06-22T02:11:48;21.80;49.80
62809;DHT22;48848;39.002;-94.584;2023-06-22T02:14:19;22.00;47.30
62809;DHT22;48848;39.002;-94.584;2023-06-22T02:16:45;21.80;46.80
62809;DHT22;48848;39.002;-94.584;2023-06-22T02:19:11;21.80;46.40
62809;DHT22;48848;39.002;-94.584;2023-06-22T02:21:37;21.90;46.20
62809;DHT22;48848;39.002;-94.584;2023-06-22T02:24:03;22.00;45.90
62809;DHT22;48848;39.002;-94.584;2023-06-22T02:26:29;22.00;45.80
62809;DHT22;48848;39.002;-94.584;2023-06-22T02:28:55;22.10;45.30
62809;DHT22;48848;39.002;-94.584;2023-06-22T02:31:21;22.20;45.20
62809;DHT22;48848;39.002;-94.584;2023-06-22T02:33:47;22.20;44.80
62809;DHT22;48848;39.002;-94.584;2023-06-22T02:36:14;22.30;44.50
62809;DHT22;48848;39.002;-94.584;2023-06-22T02:38:43;22.50;44.90
62809;DHT22;48848;39.002;-94.584;2023-06-22T02:41:14;22.50;43.70
62809;DHT22;48848;39.002;-94.584;2023-06-22T02:43:44;22.60;43.70
62809;DHT22;48848;39.002;-94.584;2023-06-22T02:46:10;22.60;44.70
62809;DHT22;48848;39.002;-94.584;2023-06-22T02:48:37;22.70;43.30
62809;DHT22;48848;39.002;-94.584;2023-06-22T02:51:03;22.60;43.50
62809;DHT22;48848;39.002;-94.584;2023-06-22T02:53:29;22.70;43.10
62809;DHT22;48848;39.002;-94.584;2023-06-22T02:55:55;22.60;43.20
62809;DHT22;48848;39.002;-94.584;2023-06-22T02:58:21;22.60;43.00
62809;DHT22;48848;39.002;-94.584;2023-06-22T03:00:47;22.60;42.70
62809;DHT22;48848;39.002;-94.584;2023-06-22T03:03:13;22.70;43.00
62809;DHT22;48848;39.002;-94.584;2023-06-22T03:05:39;22.60;43.20
62809;DHT22;48848;39.002;-94.584;2023-06-22T03:08:05;22.40;43.30
62809;DHT22;48848;39.002;-94.584;2023-06-22T03:10:31;22.30;43.50
62809;DHT22;48848;39.002;-94.584;2023-06-22T03:12:57;22.30;43.50
62809;DHT22;48848;39.002;-94.584;2023-06-22T03:15:23;22.20;43.40
62809;DHT22;48848;39.002;-94.584;2023-06-22T03:17:49;22.10;43.60
62809;DHT22;48848;39.002;-94.584;2023-06-22T03:20:14;22.10;43.60
62809;DHT22;48848;39.002;-94.584;2023-06-22T03:22:41;22.10;43.70
62809;DHT22;48848;39.002;-94.584;2023-06-22T03:25:10;22.10;43.70
62809;DHT22;48848;39.002;-94.584;2023-06-22T03:27:39;22.10;43.60
62809;DHT22;48848;39.002;-94.584;2023-06-22T03:30:06;22.00;43.60
62809;DHT22;48848;39.002;-94.584;2023-06-22T03:32:32;22.00;43.50
62809;DHT22;48848;39.002;-94.584;2023-06-22T03:34:58;22.00;43.50
62809;DHT22;48848;39.002;-94.584;2023-06-22T03:37:27;22.00;43.60
62809;DHT22;48848;39.002;-94.584;2023-06-22T03:39:53;22.00;43.70
62809;DHT22;48848;39.002;-94.584;2023-06-22T03:42:19;22.00;43.60
62809;DHT22;48848;39.002;-94.584;2023-06-22T03:44:45;22.00;43.50
62809;DHT22;48848;39.002;-94.584;2023-06-22T03:47:11;22.00;43.50
62809;DHT22;48848;39.002;-94.584;2023-06-22T03:49:37;21.90;43.50
62809;DHT22;48848;39.002;-94.584;2023-06-22T03:52:03;21.90;43.40
62809;DHT22;48848;39.002;-94.584;2023-06-22T03:54:30;21.90;43.30
62809;DHT22;48848;39.002;-94.584;2023-06-22T03:56:58;21.90;43.30
62809;DHT22;48848;39.002;-94.584;2023-06-22T03:59:24;21.90;43.30
62809;DHT22;48848;39.002;-94.584;2023-06-22T04:01:50;21.90;43.30
62809;DHT22;48848;39.002;-94.584;2023-06-22T04:04:19;21.90;43.30
62809;DHT22;48848;39.002;-94.584;2023-06-22T04:06:45;21.80;43.20
62809;DHT22;48848;39.002;-94.584;2023-06-22T04:09:11;21.80;43.10
62809;DHT22;48848;39.002;-94.584;2023-06-22T04:11:36;21.80;43.20
62809;DHT22;48848;39.002;-94.584;2023-06-22T04:14:02;21.90;43.30
62809;DHT22;48848;39.002;-94.584;2023-06-22T04:16:28;21.80;44.10
62809;DHT22;48848;39.002;-94.584;2023-06-22T04:18:54;21.80;43.10
62809;DHT22;48848;39.002;-94.584;2023-06-22T04:21:20;21.80;43.00
62809;DHT22;48848;39.002;-94.584;2023-06-22T04:23:46;21.70;43.00
62809;DHT22;48848;39.002;-94.584;2023-06-22T04:26:12;21.70;43.00
62809;DHT22;48848;39.002;-94.584;2023-06-22T04:28:39;21.70;43.00
62809;DHT22;48848;39.002;-94.584;2023-06-22T04:31:05;21.70;42.90
62809;DHT22;48848;39.002;-94.584;2023-06-22T04:33:31;21.70;43.00
62809;DHT22;48848;39.002;-94.584;2023-06-22T04:35:57;21.70;42.80
62809;DHT22;48848;39.002;-94.584;2023-06-22T04:38:24;21.70;42.90
62809;DHT22;48848;39.002;-94.584;2023-06-22T04:40:50;21.70;42.90
62809;DHT22;48848;39.002;-94.584;2023-06-22T04:43:16;21.60;42.80
62809;DHT22;48848;39.002;-94.584;2023-06-22T04:45:42;21.60;42.80
62809;DHT22;48848;39.002;-94.584;2023-06-22T04:48:08;21.60;42.80
62809;DHT22;48848;39.002;-94.584;2023-06-22T04:50:37;21.60;42.80
62809;DHT22;48848;39.002;-94.584;2023-06-22T04:53:04;21.60;42.80
62809;DHT22;48848;39.002;-94.584;2023-06-22T04:55:34;21.60;42.80
62809;DHT22;48848;39.002;-94.584;2023-06-22T04:57:59;21.60;42.70
62809;DHT22;48848;39.002;-94.584;2023-06-22T05:00:30;21.60;42.70
62809;DHT22;48848;39.002;-94.584;2023-06-22T05:02:56;21.50;42.70
62809;DHT22;48848;39.002;-94.584;2023-06-22T05:05:25;21.50;42.80
62809;DHT22;48848;39.002;-94.584;2023-06-22T05:07:51;21.50;42.60
62809;DHT22;48848;39.002;-94.584;2023-06-22T05:10:25;21.50;42.60
62809;DHT22;48848;39.002;-94.584;2023-06-22T05:12:51;21.50;42.60
62809;DHT22;48848;39.002;-94.584;2023-06-22T05:15:16;21.50;42.70
62809;DHT22;48848;39.002;-94.584;2023-06-22T05:17:45;21.50;42.70
62809;DHT22;48848;39.002;-94.584;2023-06-22T05:20:11;21.50;42.60
62809;DHT22;48848;39.002;-94.584;2023-06-22T05:22:37;21.40;42.70
62809;DHT22;48848;39.002;-94.584;2023-06-22T05:25:05;21.40;43.50
62809;DHT22;48848;39.002;-94.584;2023-06-22T05:27:31;21.40;42.60
62809;DHT22;48848;39.002;-94.584;2023-06-22T05:29:57;21.40;42.50
62809;DHT22;48848;39.002;-94.584;2023-06-22T05:32:23;21.30;43.50
62809;DHT22;48848;39.002;-94.584;2023-06-22T05:34:49;21.30;42.50
62809;DHT22;48848;39.002;-94.584;2023-06-22T05:37:15;21.30;42.50
62809;DHT22;48848;39.002;-94.584;2023-06-22T05:39:40;21.30;42.60
62809;DHT22;48848;39.002;-94.584;2023-06-22T05:42:07;21.20;42.60
62809;DHT22;48848;39.002;-94.584;2023-06-22T05:44:33;21.20;42.50
62809;DHT22;48848;39.002;-94.584;2023-06-22T05:46:59;21.20;42.50
62809;DHT22;48848;39.002;-94.584;2023-06-22T05:49:25;21.20;42.60
62809;DHT22;48848;39.002;-94.584;2023-06-22T05:51:55;21.10;42.50
62809;DHT22;48848;39.002;-94.584;2023-06-22T05:54:22;21.20;42.50
62809;DHT22;48848;39.002;-94.584;2023-06-22T05:56:48;21.10;42.40
62809;DHT22;48848;39.002;-94.584;2023-06-22T05:59:13;21.20;44.10
62809;DHT22;48848;39.002;-94.584;2023-06-22T06:01:39;21.30;44.20
62809;DHT22;48848;39.002;-94.584;2023-06-22T06:04:05;21.50;44.60
62809;DHT22;48848;39.002;-94.584;2023-06-22T06:06:33;21.60;42.60
62809;DHT22;48848;39.002;-94.584;2023-06-22T06:09:03;21.40;42.30
62809;DHT22;48848;39.002;-94.584;2023-06-22T06:11:29;21.40;42.40
62809;DHT22;48848;39.002;-94.584;2023-06-22T06:13:55;21.30;42.40
62809;DHT22;48848;39.002;-94.584;2023-06-22T06:16:21;21.20;42.40
62809;DHT22;48848;39.002;-94.584;2023-06-22T06:18:47;21.20;42.50
62809;DHT22;48848;39.002;-94.584;2023-06-22T06:21:15;21.20;42.50
62809;DHT22;48848;39.002;-94.584;2023-06-22T06:23:40;21.10;42.40
62809;DHT22;48848;39.002;-94.584;2023-06-22T06:26:07;21.10;42.40
62809;DHT22;48848;39.002;-94.584;2023-06-22T06:28:34;21.10;42.40
62809;DHT22;48848;39.002;-94.584;2023-06-22T06:31:00;21.10;42.50
62809;DHT22;48848;39.002;-94.584;2023-06-22T06:33:26;21.00;42.30
62809;DHT22;48848;39.002;-94.584;2023-06-22T06:35:52;21.00;42.30
62809;DHT22;48848;39.002;-94.584;2023-06-22T06:38:18;21.00;42.40
62809;DHT22;48848;39.002;-94.584;2023-06-22T06:40:44;21.00;42.20
62809;DHT22;48848;39.002;-94.584;2023-06-22T06:43:10;21.00;42.30
62809;DHT22;48848;39.002;-94.584;2023-06-22T06:45:36;20.90;42.20
62809;DHT22;48848;39.002;-94.584;2023-06-22T06:48:02;20.90;42.20
62809;DHT22;48848;39.002;-94.584;2023-06-22T06:50:28;20.90;42.30
62809;DHT22;48848;39.002;-94.584;2023-06-22T06:52:54;20.90;42.30
62809;DHT22;48848;39.002;-94.584;2023-06-22T06:55:21;20.90;42.30
62809;DHT22;48848;39.002;-94.584;2023-06-22T06:57:50;20.80;42.30
62809;DHT22;48848;39.002;-94.584;2023-06-22T07:00:18;20.80;42.30
62809;DHT22;48848;39.002;-94.584;2023-06-22T07:02:44;20.80;42.30
62809;DHT22;48848;39.002;-94.584;2023-06-22T07:05:11;20.70;42.30
62809;DHT22;48848;39.002;-94.584;2023-06-22T07:07:37;20.70;42.30
62809;DHT22;48848;39.002;-94.584;2023-06-22T07:10:03;20.70;42.30
62809;DHT22;48848;39.002;-94.584;2023-06-22T07:12:29;20.70;42.30
62809;DHT22;48848;39.002;-94.584;2023-06-22T07:15:01;20.70;42.20
62809;DHT22;48848;39.002;-94.584;2023-06-22T07:17:27;20.70;42.20
62809;DHT22;48848;39.002;-94.584;2023-06-22T07:19:53;20.70;42.40
62809;DHT22;48848;39.002;-94.584;2023-06-22T07:22:19;20.70;42.30
62809;DHT22;48848;39.002;-94.584;2023-06-22T07:24:45;20.60;42.20
62809;DHT22;48848;39.002;-94.584;2023-06-22T07:27:10;20.60;43.30
62809;DHT22;48848;39.002;-94.584;2023-06-22T07:29:38;20.60;42.40
62809;DHT22;48848;39.002;-94.584;2023-06-22T07:32:06;20.60;42.20
62809;DHT22;48848;39.002;-94.584;2023-06-22T07:34:32;20.50;42.30
62809;DHT22;48848;39.002;-94.584;2023-06-22T07:36:59;20.50;42.20
62809;DHT22;48848;39.002;-94.584;2023-06-22T07:39:25;20.50;42.20
62809;DHT22;48848;39.002;-94.584;2023-06-22T07:41:52;20.50;42.20
62809;DHT22;48848;39.002;-94.584;2023-06-22T07:44:18;20.50;42.30
62809;DHT22;48848;39.002;-94.584;2023-06-22T07:46:44;20.60;44.10
62809;DHT22;48848;39.002;-94.584;2023-06-22T07:49:10;20.60;44.00
62809;DHT22;48848;39.002;-94.584;2023-06-22T07:51:35;20.80;43.90
62809;DHT22;48848;39.002;-94.584;2023-06-22T07:54:01;21.00;44.30
62809;DHT22;48848;39.002;-94.584;2023-06-22T07:56:27;21.10;43.40
62809;DHT22;48848;39.002;-94.584;2023-06-22T07:58:53;21.20;43.10
62809;DHT22;48848;39.002;-94.584;2023-06-22T08:01:19;21.30;43.00
62809;DHT22;48848;39.002;-94.584;2023-06-22T08:03:49;21.40;43.30
62809;DHT22;48848;39.002;-94.584;2023-06-22T08:06:15;21.50;43.20
62809;DHT22;48848;39.002;-94.584;2023-06-22T08:08:41;21.60;43.40
62809;DHT22;48848;39.002;-94.584;2023-06-22T08:11:08;21.60;43.40
62809;DHT22;48848;39.002;-94.584;2023-06-22T08:13:34;21.70;43.70
62809;DHT22;48848;39.002;-94.584;2023-06-22T08:16:00;21.80;41.80
62809;DHT22;48848;39.002;-94.584;2023-06-22T08:18:26;21.70;41.40
62809;DHT22;48848;39.002;-94.584;2023-06-22T08:20:52;21.50;41.50
62809;DHT22;48848;39.002;-94.584;2023-06-22T08:23:18;21.30;41.70
62809;DHT22;48848;39.002;-94.584;2023-06-22T08:25:44;21.10;41.80
62809;DHT22;48848;39.002;-94.584;2023-06-22T08:28:09;21.10;42.00
62809;DHT22;48848;39.002;-94.584;2023-06-22T08:30:35;21.00;42.00
62809;DHT22;48848;39.002;-94.584;2023-06-22T08:33:01;20.90;42.10
62809;DHT22;48848;39.002;-94.584;2023-06-22T08:35:27;20.90;42.20
62809;DHT22;48848;39.002;-94.584;2023-06-22T08:37:53;20.80;42.20
62809;DHT22;48848;39.002;-94.584;2023-06-22T08:40:20;20.70;42.20
62809;DHT22;48848;39.002;-94.584;2023-06-22T08:42:47;20.70;42.10
62809;DHT22;48848;39.002;-94.584;2023-06-22T08:45:13;20.70;46.30
62809;DHT22;48848;39.002;-94.584;2023-06-22T08:47:39;20.90;44.40
62809;DHT22;48848;39.002;-94.584;2023-06-22T08:50:06;20.90;43.90
62809;DHT22;48848;39.002;-94.584;2023-06-22T08:52:34;21.10;43.70
62809;DHT22;48848;39.002;-94.584;2023-06-22T08:55:00;21.20;43.40
62809;DHT22;48848;39.002;-94.584;2023-06-22T08:57:26;21.30;43.30
62809;DHT22;48848;39.002;-94.584;2023-06-22T08:59:52;21.40;43.30
62809;DHT22;48848;39.002;-94.584;2023-06-22T09:02:18;21.50;43.40
62809;DHT22;48848;39.002;-94.584;2023-06-22T09:04:47;21.50;43.00
62809;DHT22;48848;39.002;-94.584;2023-06-22T09:07:14;21.60;43.20
62809;DHT22;48848;39.002;-94.584;2023-06-22T09:09:40;21.80;42.60
62809;DHT22;48848;39.002;-94.584;2023-06-22T09:12:06;21.70;41.50
62809;DHT22;48848;39.002;-94.584;2023-06-22T09:14:32;21.60;41.50
62809;DHT22;48848;39.002;-94.584;2023-06-22T09:16:58;21.40;41.60
62809;DHT22;48848;39.002;-94.584;2023-06-22T09:19:23;21.20;41.70
62809;DHT22;48848;39.002;-94.584;2023-06-22T09:21:49;21.10;41.80
62809;DHT22;48848;39.002;-94.584;2023-06-22T09:24:15;21.00;41.90
62809;DHT22;48848;39.002;-94.584;2023-06-22T09:26:41;20.90;41.90
62809;DHT22;48848;39.002;-94.584;2023-06-22T09:29:07;20.80;42.00
62809;DHT22;48848;39.002;-94.584;2023-06-22T09:31:33;20.80;42.10
62809;DHT22;48848;39.002;-94.584;2023-06-22T09:33:59;20.70;42.10
62809;DHT22;48848;39.002;-94.584;2023-06-22T09:36:24;20.60;48.30
62809;DHT22;48848;39.002;-94.584;2023-06-22T09:38:50;20.70;51.90
62809;DHT22;48848;39.002;-94.584;2023-06-22T09:41:24;20.90;50.90
62809;DHT22;48848;39.002;-94.584;2023-06-22T09:43:50;21.00;47.50
62809;DHT22;48848;39.002;-94.584;2023-06-22T09:46:16;21.10;46.80
62809;DHT22;48848;39.002;-94.584;2023-06-22T09:48:42;21.20;46.10
62809;DHT22;48848;39.002;-94.584;2023-06-22T09:51:08;21.30;46.10
62809;DHT22;48848;39.002;-94.584;2023-06-22T09:53:34;21.30;45.60
62809;DHT22;48848;39.002;-94.584;2023-06-22T09:56:03;21.40;45.60
62809;DHT22;48848;39.002;-94.584;2023-06-22T09:58:29;21.50;46.20
62809;DHT22;48848;39.002;-94.584;2023-06-22T10:00:55;21.50;45.30
62809;DHT22;48848;39.002;-94.584;2023-06-22T10:03:21;21.60;45.10
62809;DHT22;48848;39.002;-94.584;2023-06-22T10:05:47;21.60;45.30
62809;DHT22;48848;39.002;-94.584;2023-06-22T10:08:12;21.70;45.00
62809;DHT22;48848;39.002;-94.584;2023-06-22T10:10:38;21.70;44.80
62809;DHT22;48848;39.002;-94.584;2023-06-22T10:13:08;21.70;44.70
62809;DHT22;48848;39.002;-94.584;2023-06-22T10:15:37;21.80;45.00
62809;DHT22;48848;39.002;-94.584;2023-06-22T10:18:03;21.90;45.20
62809;DHT22;48848;39.002;-94.584;2023-06-22T10:20:29;22.10;44.30
62809;DHT22;48848;39.002;-94.584;2023-06-22T10:22:55;22.30;44.10
62809;DHT22;48848;39.002;-94.584;2023-06-22T10:25:21;22.40;44.00
62809;DHT22;48848;39.002;-94.584;2023-06-22T10:27:47;22.40;43.90
62809;DHT22;48848;39.002;-94.584;2023-06-22T10:30:13;22.50;43.70
62809;DHT22;48848;39.002;-94.584;2023-06-22T10:32:39;22.50;43.80
62809;DHT22;48848;39.002;-94.584;2023-06-22T10:35:06;22.60;43.80
62809;DHT22;48848;39.002;-94.584;2023-06-22T10:37:32;22.60;43.80
62809;DHT22;48848;39.002;-94.584;2023-06-22T10:39:58;22.60;43.70
62809;DHT22;48848;39.002;-94.584;2023-06-22T10:42:24;22.60;43.80
62809;DHT22;48848;39.002;-94.584;2023-06-22T10:44:50;22.60;41.90
62809;DHT22;48848;39.002;-94.584;2023-06-22T10:47:16;22.40;41.30
62809;DHT22;48848;39.002;-94.584;2023-06-22T10:49:41;22.10;41.40
62809;DHT22;48848;39.002;-94.584;2023-06-22T10:52:07;21.80;41.40
62809;DHT22;48848;39.002;-94.584;2023-06-22T10:54:34;21.70;42.00
62809;DHT22;48848;39.002;-94.584;2023-06-22T10:57:00;21.60;51.60
62809;DHT22;48848;39.002;-94.584;2023-06-22T10:59:26;21.60;52.60
62809;DHT22;48848;39.002;-94.584;2023-06-22T11:01:54;21.70;48.40
62809;DHT22;48848;39.002;-94.584;2023-06-22T11:04:20;21.90;47.00
62809;DHT22;48848;39.002;-94.584;2023-06-22T11:06:47;22.00;46.40
62809;DHT22;48848;39.002;-94.584;2023-06-22T11:09:13;22.20;45.90
62809;DHT22;48848;39.002;-94.584;2023-06-22T11:11:44;22.30;45.30
62809;DHT22;48848;39.002;-94.584;2023-06-22T11:14:10;22.40;45.00
62809;DHT22;48848;39.002;-94.584;2023-06-22T11:16:35;22.40;45.00
62809;DHT22;48848;39.002;-94.584;2023-06-22T11:19:01;22.40;44.70
62809;DHT22;48848;39.002;-94.584;2023-06-22T11:21:28;22.50;44.90
62809;DHT22;48848;39.002;-94.584;2023-06-22T11:23:54;22.50;44.90
62809;DHT22;48848;39.002;-94.584;2023-06-22T11:26:20;22.50;44.90
62809;DHT22;48848;39.002;-94.584;2023-06-22T11:28:46;22.60;44.80
62809;DHT22;48848;39.002;-94.584;2023-06-22T11:31:12;22.60;44.70
62809;DHT22;48848;39.002;-94.584;2023-06-22T11:33:38;22.40;45.00
62809;DHT22;48848;39.002;-94.584;2023-06-22T11:36:04;22.60;44.80
62809;DHT22;48848;39.002;-94.584;2023-06-22T11:38:30;22.40;45.10
62809;DHT22;48848;39.002;-94.584;2023-06-22T11:40:59;22.30;45.30
62809;DHT22;48848;39.002;-94.584;2023-06-22T11:43:25;22.30;45.40
62809;DHT22;48848;39.002;-94.584;2023-06-22T11:45:51;22.30;45.30
62809;DHT22;48848;39.002;-94.584;2023-06-22T11:48:17;22.30;45.30
62809;DHT22;48848;39.002;-94.584;2023-06-22T11:50:43;22.50;45.10
62809;DHT22;48848;39.002;-94.584;2023-06-22T11:53:09;22.60;45.10
62809;DHT22;48848;39.002;-94.584;2023-06-22T11:55:34;22.70;44.70
62809;DHT22;48848;39.002;-94.584;2023-06-22T11:58:00;22.60;44.80
62809;DHT22;48848;39.002;-94.584;2023-06-22T12:00:29;22.40;45.10
62809;DHT22;48848;39.002;-94.584;2023-06-22T12:02:55;22.40;46.30
62809;DHT22;48848;39.002;-94.584;2023-06-22T12:05:21;22.40;45.50
62809;DHT22;48848;39.002;-94.584;2023-06-22T12:07:48;22.40;45.40
62809;DHT22;48848;39.002;-94.584;2023-06-22T12:10:14;22.50;45.50
62809;DHT22;48848;39.002;-94.584;2023-06-22T12:12:40;22.40;45.30
62809;DHT22;48848;39.002;-94.584;2023-06-22T12:15:06;22.60;45.10
62809;DHT22;48848;39.002;-94.584;2023-06-22T12:17:33;22.60;45.00
62809;DHT22;48848;39.002;-94.584;2023-06-22T12:19:59;22.80;44.70
62809;DHT22;48848;39.002;-94.584;2023-06-22T12:22:25;22.80;44.60
62809;DHT22;48848;39.002;-94.584;2023-06-22T12:24:51;22.70;44.70
62809;DHT22;48848;39.002;-94.584;2023-06-22T12:27:17;22.60;45.10
62809;DHT22;48848;39.002;-94.584;2023-06-22T12:29:45;22.50;45.30
62809;DHT22;48848;39.002;-94.584;2023-06-22T12:32:11;22.50;45.30
62809;DHT22;48848;39.002;-94.584;2023-06-22T12:34:39;22.50;45.30
62809;DHT22;48848;39.002;-94.584;2023-06-22T12:37:05;22.50;45.30
62809;DHT22;48848;39.002;-94.584;2023-06-22T12:39:34;22.60;45.50
62809;DHT22;48848;39.002;-94.584;2023-06-22T12:42:00;22.70;45.00
62809;DHT22;48848;39.002;-94.584;2023-06-22T12:44:25;22.90;44.90
62809;DHT22;48848;39.002;-94.584;2023-06-22T12:46:51;23.00;42.50
62809;DHT22;48848;39.002;-94.584;2023-06-22T12:49:17;22.90;41.90
62809;DHT22;48848;39.002;-94.584;2023-06-22T12:51:43;22.70;41.70
62809;DHT22;48848;39.002;-94.584;2023-06-22T12:54:09;22.50;41.70
62809;DHT22;48848;39.002;-94.584;2023-06-22T12:56:35;22.30;41.90
62809;DHT22;48848;39.002;-94.584;2023-06-22T12:59:01;22.10;42.20
62809;DHT22;48848;39.002;-94.584;2023-06-22T13:01:27;22.00;42.90
62809;DHT22;48848;39.002;-94.584;2023-06-22T13:03:53;21.90;46.30
62809;DHT22;48848;39.002;-94.584;2023-06-22T13:06:19;21.90;45.20
62809;DHT22;48848;39.002;-94.584;2023-06-22T13:08:45;22.00;45.40
62809;DHT22;48848;39.002;-94.584;2023-06-22T13:11:11;22.20;45.30
62809;DHT22;48848;39.002;-94.584;2023-06-22T13:13:37;22.40;45.40
62809;DHT22;48848;39.002;-94.584;2023-06-22T13:16:02;22.40;45.40
62809;DHT22;48848;39.002;-94.584;2023-06-22T13:18:28;22.50;45.10
62809;DHT22;48848;39.002;-94.584;2023-06-22T13:20:54;22.40;45.50
62809;DHT22;48848;39.002;-94.584;2023-06-22T13:23:20;22.60;45.10
62809;DHT22;48848;39.002;-94.584;2023-06-22T13:25:47;22.70;45.30
62809;DHT22;48848;39.002;-94.584;2023-06-22T13:28:12;22.70;45.50
62809;DHT22;48848;39.002;-94.584;2023-06-22T13:30:40;22.60;45.70
62809;DHT22;48848;39.002;-94.584;2023-06-22T13:33:06;22.90;46.20
62809;DHT22;48848;39.002;-94.584;2023-06-22T13:35:32;22.90;45.20
62809;DHT22;48848;39.002;-94.584;2023-06-22T13:37:58;23.00;45.40
62809;DHT22;48848;39.002;-94.584;2023-06-22T13:40:23;22.90;45.80
62809;DHT22;48848;39.002;-94.584;2023-06-22T13:42:50;23.00;45.50
62809;DHT22;48848;39.002;-94.584;2023-06-22T13:45:15;23.00;45.30
62809;DHT22;48848;39.002;-94.584;2023-06-22T13:47:45;23.00;45.20
62809;DHT22;48848;39.002;-94.584;2023-06-22T13:50:11;23.00;45.30
62809;DHT22;48848;39.002;-94.584;2023-06-22T13:52:38;23.10;45.40
62809;DHT22;48848;39.002;-94.584;2023-06-22T13:55:04;23.00;45.60
62809;DHT22;48848;39.002;-94.584;2023-06-22T13:57:31;23.00;45.40
62809;DHT22;48848;39.002;-94.584;2023-06-22T13:59:57;22.90;45.90
62809;DHT22;48848;39.002;-94.584;2023-06-22T14:02:22;23.00;45.80
62809;DHT22;48848;39.002;-94.584;2023-06-22T14:04:48;23.00;46.10
62809;DHT22;48848;39.002;-94.584;2023-06-22T14:07:14;22.90;45.80
62809;DHT22;48848;39.002;-94.584;2023-06-22T14:09:40;23.00;46.00
62809;DHT22;48848;39.002;-94.584;2023-06-22T14:12:06;23.00;46.20
62809;DHT22;48848;39.002;-94.584;2023-06-22T14:14:32;23.00;46.70
62809;DHT22;48848;39.002;-94.584;2023-06-22T14:16:58;22.90;46.70
62809;DHT22;48848;39.002;-94.584;2023-06-22T14:19:24;23.00;46.90
62809;DHT22;48848;39.002;-94.584;2023-06-22T14:21:50;23.20;46.40
62809;DHT22;48848;39.002;-94.584;2023-06-22T14:24:17;23.10;46.60
62809;DHT22;48848;39.002;-94.584;2023-06-22T14:26:43;23.30;46.70
62809;DHT22;48848;39.002;-94.584;2023-06-22T14:29:08;23.40;46.50
62809;DHT22;48848;39.002;-94.584;2023-06-22T14:31:34;23.30;46.20
62809;DHT22;48848;39.002;-94.584;2023-06-22T14:34:00;23.40;47.90
62809;DHT22;48848;39.002;-94.584;2023-06-22T14:36:28;23.40;46.60
62809;DHT22;48848;39.002;-94.584;2023-06-22T14:38:53;23.40;47.40
62809;DHT22;48848;39.002;-94.584;2023-06-22T14:41:19;23.50;46.90
62809;DHT22;48848;39.002;-94.584;2023-06-22T14:43:51;23.40;47.00
62809;DHT22;48848;39.002;-94.584;2023-06-22T14:46:17;23.40;47.30
62809;DHT22;48848;39.002;-94.584;2023-06-22T14:48:44;23.40;47.20
62809;DHT22;48848;39.002;-94.584;2023-06-22T14:51:10;23.40;47.30
62809;DHT22;48848;39.002;-94.584;2023-06-22T14:53:37;23.30;47.40
62809;DHT22;48848;39.002;-94.584;2023-06-22T14:56:03;23.40;47.80
62809;DHT22;48848;39.002;-94.584;2023-06-22T14:58:32;23.50;48.00
62809;DHT22;48848;39.002;-94.584;2023-06-22T15:01:04;23.50;47.00
62809;DHT22;48848;39.002;-94.584;2023-06-22T15:03:30;23.40;47.00
62809;DHT22;48848;39.002;-94.584;2023-06-22T15:05:57;23.50;47.30